createdAt,value
2022-11-23T00:01:55.952Z,10.43
2022-11-23T00:04:26.744Z,9.57
2022-11-23T00:06:55.933Z,10.25
2022-11-23T00:09:24.992Z,12.20
2022-11-23T00:11:54.088Z,11.30
2022-11-23T00:14:23.221Z,9.60
2022-11-23T00:16:52.281Z,10.50
2022-11-23T00:19:24.602Z,10.13
2022-11-23T00:21:54.283Z,8.90
2022-11-23T00:24:23.516Z,7.50
2022-11-23T00:26:52.609Z,8.30
2022-11-23T00:29:21.905Z,7.82
2022-11-23T00:31:50.996Z,8.25
2022-11-23T00:34:20.115Z,8.63
2022-11-23T00:36:49.274Z,7.60
2022-11-23T00:39:18.440Z,9.23
2022-11-23T00:41:47.669Z,9.52
2022-11-23T00:44:16.846Z,8.90
2022-11-23T00:46:45.913Z,8.15
2022-11-23T00:49:15.035Z,7.45
2022-11-23T00:51:44.178Z,8.80
2022-11-23T00:54:14.084Z,7.68
2022-11-23T00:56:43.243Z,7.43
2022-11-23T00:59:12.646Z,7.30
2022-11-23T01:01:41.755Z,7.75
2022-11-23T01:04:11.121Z,7.10
2022-11-23T01:06:42.084Z,6.60
2022-11-23T01:09:21.276Z,6.75
2022-11-23T01:11:50.437Z,7.28
2022-11-23T01:14:19.706Z,6.63
2022-11-23T01:16:49.439Z,8.15
2022-11-23T01:19:21.806Z,6.50
2022-11-23T01:21:51.506Z,6.13
2022-11-23T01:24:24.221Z,8.57
2022-11-23T01:26:55.502Z,6.63
2022-11-23T01:29:26.312Z,6.18
2022-11-23T01:31:55.525Z,7.93
2022-11-23T01:34:24.816Z,6.05
2022-11-23T01:36:53.896Z,7.80
2022-11-23T01:39:23.064Z,6.97
2022-11-23T01:41:52.257Z,6.50
2022-11-23T01:44:43.813Z,5.97
2022-11-23T01:47:13.015Z,8.40
2022-11-23T01:49:52.435Z,7.55
2022-11-23T01:52:27.689Z,7.40
2022-11-23T01:55:03.850Z,7.00
2022-11-23T01:57:44.948Z,6.82
2022-11-23T02:00:14.977Z,9.52
2022-11-23T02:02:56.540Z,6.00
2022-11-23T02:05:39.474Z,6.82
2022-11-23T02:08:12.440Z,6.38
2022-11-23T02:10:41.726Z,5.18
2022-11-23T02:13:15.142Z,5.72
2022-11-23T02:15:44.501Z,6.15
2022-11-23T02:18:26.292Z,4.97
2022-11-23T02:20:58.062Z,5.95
2022-11-23T02:24:04.978Z,5.78
2022-11-23T02:26:37.671Z,4.25
2022-11-23T02:29:33.578Z,4.70
2022-11-23T02:32:08.418Z,3.88
2022-11-23T02:34:43.457Z,3.58
2022-11-23T02:37:15.843Z,3.60
2022-11-23T02:39:52.408Z,5.03
2022-11-23T02:42:24.718Z,3.63
2022-11-23T02:48:07.413Z,4.93
2022-11-23T02:50:36.633Z,5.53
2022-11-23T02:53:05.849Z,4.13
2022-11-23T02:55:35.231Z,4.03
2022-11-23T02:58:06.433Z,3.67
2022-11-23T03:00:36.765Z,3.65
2022-11-23T03:03:09.360Z,3.63
2022-11-23T03:05:38.881Z,4.22
2022-11-23T03:08:08.181Z,2.67
2022-11-23T03:10:37.584Z,3.63
2022-11-23T03:13:06.875Z,2.60
2022-11-23T03:15:38.954Z,3.17
2022-11-23T03:18:08.335Z,3.40
2022-11-23T03:20:38.079Z,3.13
2022-11-23T03:23:07.208Z,3.00
2022-11-23T03:25:36.260Z,2.47
2022-11-23T03:28:05.765Z,3.22
2022-11-23T03:30:35.506Z,2.63
2022-11-23T03:33:04.696Z,3.05
2022-11-23T03:35:33.793Z,3.17
2022-11-23T03:38:03.110Z,3.40
2022-11-23T03:40:32.168Z,3.75
2022-11-23T03:43:01.256Z,2.35
2022-11-23T03:45:30.429Z,2.47
2022-11-23T03:47:59.631Z,6.35
2022-11-23T03:50:30.686Z,2.03
2022-11-23T03:53:00.740Z,2.97
2022-11-23T03:55:31.941Z,1.70
2022-11-23T03:58:01.685Z,2.17
2022-11-23T04:00:32.913Z,2.55
2022-11-23T04:03:02.188Z,1.95
2022-11-23T04:05:31.331Z,1.95
2022-11-23T04:08:00.487Z,1.67
2022-11-23T04:10:29.578Z,1.92
2022-11-23T04:12:58.679Z,4.18
2022-11-23T04:15:27.877Z,2.47
2022-11-23T04:17:57.657Z,1.73
2022-11-23T04:20:28.750Z,2.08
2022-11-23T04:22:57.920Z,2.28
2022-11-23T04:25:27.214Z,1.75
2022-11-23T04:27:56.375Z,0.80
2022-11-23T04:30:28.676Z,1.92
2022-11-23T04:32:57.952Z,2.45
2022-11-23T04:35:27.144Z,1.63
2022-11-23T04:37:56.439Z,1.02
2022-11-23T04:40:25.673Z,1.45
2022-11-23T04:43:00.234Z,1.50
2022-11-23T04:45:30.901Z,1.55
2022-11-23T04:48:00.047Z,1.38
2022-11-23T04:50:29.210Z,1.10
2022-11-23T04:52:58.428Z,1.13
2022-11-23T04:55:27.891Z,1.70
2022-11-23T04:57:57.171Z,1.33
2022-11-23T05:00:27.095Z,1.20
2022-11-23T05:02:56.264Z,1.33
2022-11-23T05:05:25.435Z,0.85
2022-11-23T05:07:54.785Z,0.60
2022-11-23T05:10:23.973Z,0.75
2022-11-23T05:12:53.096Z,0.77
2022-11-23T05:15:22.393Z,0.77
2022-11-23T05:17:56.397Z,1.35
2022-11-23T05:20:28.727Z,0.82
2022-11-23T05:22:58.288Z,0.60
2022-11-23T05:25:28.498Z,0.70
2022-11-23T05:28:00.985Z,0.55
2022-11-23T05:30:33.503Z,0.50
2022-11-23T05:33:05.199Z,0.32
2022-11-23T05:35:34.435Z,0.40
2022-11-23T05:38:03.721Z,0.77
2022-11-23T05:40:33.496Z,0.60
2022-11-23T05:43:02.759Z,0.40
2022-11-23T05:45:32.076Z,0.55
2022-11-23T05:48:01.782Z,1.20
2022-11-23T05:50:31.504Z,0.60
2022-11-23T05:53:01.529Z,0.60
2022-11-23T05:55:31.529Z,0.80
2022-11-23T05:58:00.696Z,1.35
2022-11-23T06:00:29.930Z,2.05
2022-11-23T06:03:03.880Z,0.80
2022-11-23T06:05:33.166Z,1.83
2022-11-23T06:08:02.368Z,0.95
2022-11-23T06:10:31.575Z,0.90
2022-11-23T06:13:05.900Z,1.80
2022-11-23T06:15:35.173Z,0.88
2022-11-23T06:18:05.594Z,0.90
2022-11-23T06:20:35.794Z,0.70
2022-11-23T06:23:05.368Z,0.93
2022-11-23T06:25:34.563Z,0.95
2022-11-23T06:28:04.077Z,0.82
2022-11-23T06:30:33.507Z,0.93
2022-11-23T06:33:05.754Z,0.60
2022-11-23T06:35:35.064Z,0.88
2022-11-23T06:38:04.576Z,0.70
2022-11-23T06:40:33.732Z,1.65
2022-11-23T06:43:03.290Z,1.17
2022-11-23T06:45:32.453Z,2.20
2022-11-23T06:48:01.616Z,1.55
2022-11-23T06:50:30.843Z,0.98
2022-11-23T06:53:00.503Z,0.95
2022-11-23T06:55:29.822Z,1.88
2022-11-23T06:58:00.380Z,1.80
2022-11-23T07:00:29.738Z,3.35
2022-11-23T07:02:59.184Z,1.50
2022-11-23T07:05:28.673Z,1.00
2022-11-23T07:07:58.576Z,1.20
2022-11-23T07:10:27.951Z,1.90
2022-11-23T07:12:57.217Z,1.88
2022-11-23T07:15:26.461Z,2.70
2022-11-23T07:17:55.653Z,2.17
2022-11-23T07:20:25.853Z,3.25
2022-11-23T07:23:08.128Z,2.45
2022-11-23T07:25:39.687Z,2.65
2022-11-23T07:28:11.766Z,3.50
2022-11-23T07:30:40.923Z,3.20
2022-11-23T07:33:13.571Z,2.28
2022-11-23T07:35:43.309Z,1.90
2022-11-23T07:38:12.437Z,2.10
2022-11-23T07:40:41.752Z,2.30
2022-11-23T07:43:11.936Z,2.35
2022-11-23T07:45:41.044Z,2.25
2022-11-23T07:48:11.990Z,2.60
2022-11-23T07:50:41.884Z,6.55
2022-11-23T07:53:12.460Z,8.77
2022-11-23T07:55:41.558Z,5.90
2022-11-23T07:58:12.903Z,7.53
2022-11-23T08:00:42.072Z,5.20
2022-11-23T08:03:31.130Z,4.80
2022-11-23T08:06:00.272Z,4.47
2022-11-23T08:08:29.463Z,5.00
2022-11-23T08:10:58.534Z,2.63
2022-11-23T08:13:27.567Z,3.92
2022-11-23T08:15:57.931Z,4.43
2022-11-23T08:18:27.029Z,6.03
2022-11-23T08:21:00.601Z,6.47
2022-11-23T08:23:30.024Z,6.35
2022-11-23T08:25:59.239Z,5.70
2022-11-23T08:28:28.407Z,7.53
2022-11-23T08:30:57.504Z,6.93
2022-11-23T08:33:26.648Z,5.45
2022-11-23T08:35:55.804Z,4.80
2022-11-23T08:38:24.967Z,3.58
2022-11-23T08:40:54.059Z,3.70
2022-11-23T08:43:23.163Z,2.53
2022-11-23T08:45:57.675Z,3.38
2022-11-23T08:48:31.032Z,2.20
2022-11-23T08:51:03.302Z,2.25
2022-11-23T08:53:32.365Z,2.33
2022-11-23T08:56:07.784Z,2.30
2022-11-23T08:58:37.844Z,2.03
2022-11-23T09:01:15.860Z,3.08
2022-11-23T09:03:45.693Z,2.85
2022-11-23T09:06:14.927Z,6.50
2022-11-23T09:08:44.062Z,3.15
2022-11-23T09:11:15.319Z,1.80
2022-11-23T09:13:44.545Z,3.22
2022-11-23T09:16:13.780Z,3.10
2022-11-23T09:18:43.188Z,3.92
2022-11-23T09:21:12.705Z,3.53
2022-11-23T09:23:41.819Z,2.55
2022-11-23T09:26:11.512Z,2.42
2022-11-23T09:28:44.661Z,3.53
2022-11-23T09:31:14.218Z,3.80
2022-11-23T09:33:43.362Z,4.82
2022-11-23T09:36:12.639Z,4.35
2022-11-23T09:38:57.681Z,4.38
2022-11-23T09:41:59.379Z,4.57
2022-11-23T09:45:12.715Z,4.65
2022-11-23T09:48:02.563Z,4.15
2022-11-23T09:50:49.801Z,4.40
2022-11-23T09:53:33.928Z,5.55
2022-11-23T09:56:03.963Z,5.10
2022-11-23T09:58:42.215Z,5.10
2022-11-23T10:01:18.396Z,5.78
2022-11-23T10:03:49.411Z,6.22
2022-11-23T10:06:32.252Z,5.88
2022-11-23T10:09:34.562Z,5.97
2022-11-23T10:12:41.120Z,5.05
2022-11-23T10:15:57.560Z,8.27
2022-11-23T10:18:35.696Z,11.25
2022-11-23T10:21:17.133Z,4.15
2022-11-23T10:24:17.021Z,3.90
2022-11-23T10:26:50.731Z,4.10
2022-11-23T10:29:41.007Z,3.90
2022-11-23T10:32:48.345Z,4.00
2022-11-23T10:35:26.622Z,4.22
2022-11-23T10:41:17.626Z,3.08
2022-11-23T10:44:19.675Z,2.75
2022-11-23T10:46:48.775Z,2.60
2022-11-23T10:49:19.428Z,2.67
2022-11-23T10:52:06.587Z,2.10
2022-11-23T10:55:07.879Z,3.17
2022-11-23T10:57:46.479Z,2.72
2022-11-23T11:00:17.795Z,3.00
2022-11-23T11:02:54.353Z,3.40
2022-11-23T11:06:07.462Z,3.65
2022-11-23T11:08:36.589Z,3.00
2022-11-23T11:11:46.711Z,3.05
2022-11-23T11:14:24.441Z,3.83
2022-11-23T11:16:58.974Z,3.85
2022-11-23T11:19:36.346Z,3.60
2022-11-23T11:22:30.261Z,3.53
2022-11-23T11:24:59.773Z,3.95
2022-11-23T11:27:33.180Z,3.90
2022-11-23T11:30:21.766Z,3.33
2022-11-23T11:33:37.279Z,3.70
2022-11-23T11:36:10.996Z,3.90
2022-11-23T11:38:45.931Z,3.65
2022-11-23T11:41:26.371Z,4.88
2022-11-23T11:44:11.315Z,5.35
2022-11-23T11:46:47.532Z,5.53
2022-11-23T11:49:38.404Z,6.15
2022-11-23T11:52:22.986Z,5.97
2022-11-23T11:55:34.737Z,6.25
2022-11-23T11:58:12.210Z,6.43
2022-11-23T12:00:45.232Z,7.72
2022-11-23T12:03:49.110Z,7.90
2022-11-23T12:06:55.360Z,8.38
2022-11-23T12:09:36.426Z,12.25
2022-11-23T12:12:16.658Z,9.65
2022-11-23T12:14:50.102Z,9.07
2022-11-23T12:18:11.804Z,9.35
2022-11-23T12:21:05.819Z,9.15
2022-11-23T12:23:47.910Z,8.32
2022-11-23T12:27:11.512Z,6.47
2022-11-23T12:30:27.040Z,4.07
2022-11-23T12:33:40.669Z,5.10
2022-11-23T12:36:31.148Z,4.22
2022-11-23T12:39:21.222Z,3.50
2022-11-23T12:42:03.733Z,2.28
2022-11-23T12:44:46.340Z,1.40
2022-11-23T12:48:03.450Z,2.22
2022-11-23T12:50:48.930Z,2.73
2022-11-23T12:54:05.718Z,2.45
2022-11-23T12:56:56.178Z,2.00
2022-11-23T12:59:28.330Z,1.58
2022-11-23T13:02:05.337Z,2.00
2022-11-23T13:05:04.900Z,1.27
2022-11-23T13:08:13.533Z,1.50
2022-11-23T13:11:30.543Z,1.75
2022-11-23T13:14:10.014Z,1.33
2022-11-23T13:16:55.784Z,1.23
2022-11-23T13:20:10.159Z,1.15
2022-11-23T13:22:46.508Z,1.98
2022-11-23T13:25:30.771Z,2.50
2022-11-23T13:28:04.009Z,1.85
2022-11-23T13:31:14.407Z,2.53
2022-11-23T13:33:40.287Z,1.42
2022-11-23T13:36:19.653Z,1.98
2022-11-23T13:38:49.184Z,1.73
2022-11-23T13:41:36.856Z,1.77
2022-11-23T13:44:33.591Z,2.10
2022-11-23T13:47:11.761Z,1.25
2022-11-23T13:49:50.151Z,1.05
2022-11-23T13:55:14.168Z,1.27
2022-11-23T13:57:56.061Z,1.48
2022-11-23T14:01:04.032Z,0.88
2022-11-23T14:03:50.951Z,2.70
2022-11-23T14:06:52.305Z,1.27
2022-11-23T14:09:51.834Z,2.13
2022-11-23T14:12:36.509Z,2.58
2022-11-23T14:15:19.899Z,2.70
2022-11-23T14:18:16.041Z,2.30
2022-11-23T14:20:48.803Z,1.67
2022-11-23T14:23:30.322Z,2.35
2022-11-23T14:26:31.336Z,2.28
2022-11-23T14:29:19.968Z,2.50
2022-11-23T14:32:27.519Z,2.80
2022-11-23T14:35:29.876Z,3.33
2022-11-23T14:38:17.506Z,3.03
2022-11-23T14:41:29.923Z,2.03
2022-11-23T14:44:02.617Z,1.58
2022-11-23T14:46:31.707Z,0.93
2022-11-23T14:49:19.101Z,1.00
2022-11-23T14:51:48.313Z,1.08
2022-11-23T14:54:18.639Z,0.50
2022-11-23T14:56:51.443Z,0.57
2022-11-23T14:59:34.136Z,0.57
2022-11-23T15:02:07.240Z,0.80
2022-11-23T15:04:52.885Z,0.55
2022-11-23T15:07:29.782Z,0.90
2022-11-23T15:10:23.556Z,0.85
2022-11-23T15:12:52.801Z,0.60
2022-11-23T15:15:40.560Z,0.50
2022-11-23T15:18:10.104Z,0.50
2022-11-23T15:20:52.882Z,0.55
2022-11-23T15:23:29.901Z,0.60
2022-11-23T15:26:46.041Z,0.40
2022-11-23T15:29:40.042Z,1.15
2022-11-23T15:32:32.806Z,0.52
2022-11-23T15:35:09.038Z,0.88
2022-11-23T15:37:51.886Z,0.80
2022-11-23T15:40:22.739Z,0.60
2022-11-23T15:42:53.371Z,0.40
2022-11-23T15:45:54.692Z,0.40
2022-11-23T15:48:44.048Z,0.30
2022-11-23T15:51:44.276Z,0.40
2022-11-23T15:54:39.523Z,0.52
2022-11-23T15:57:23.057Z,0.75
2022-11-23T15:59:58.793Z,0.70
2022-11-23T16:02:32.963Z,1.00
2022-11-23T16:05:26.008Z,1.70
2022-11-23T16:08:03.635Z,1.50
2022-11-23T16:10:36.670Z,1.20
2022-11-23T16:13:09.811Z,0.98
2022-11-23T16:15:39.216Z,1.05
2022-11-23T16:18:32.971Z,1.48
2022-11-23T16:21:06.047Z,1.67
2022-11-23T16:23:57.694Z,1.38
2022-11-23T16:26:34.884Z,1.02
2022-11-23T16:29:04.565Z,1.33
2022-11-23T16:31:44.127Z,1.33
2022-11-23T16:34:20.171Z,1.20
2022-11-23T16:36:49.555Z,1.88
2022-11-23T16:39:18.737Z,3.10
2022-11-23T16:41:48.016Z,2.78
2022-11-23T16:44:17.319Z,3.75
2022-11-23T16:46:49.260Z,3.80
2022-11-23T16:49:25.381Z,4.22
2022-11-23T16:51:57.734Z,5.43
2022-11-23T16:54:26.949Z,5.18
2022-11-23T16:56:56.245Z,4.93
2022-11-23T16:59:26.822Z,4.82
2022-11-23T17:01:57.731Z,5.75
2022-11-23T17:04:27.493Z,5.05
2022-11-23T17:06:56.799Z,5.35
2022-11-23T17:09:25.933Z,4.72
2022-11-23T17:11:55.250Z,4.88
2022-11-23T17:14:29.567Z,4.68
2022-11-23T17:17:02.763Z,5.50
2022-11-23T17:19:32.584Z,4.90
2022-11-23T17:22:02.436Z,4.45
2022-11-23T17:24:32.123Z,4.57
2022-11-23T17:27:01.629Z,4.03
2022-11-23T17:29:31.065Z,4.55
2022-11-23T17:32:01.499Z,5.35
2022-11-23T17:34:30.773Z,8.48
2022-11-23T17:37:01.406Z,10.68
2022-11-23T17:39:31.348Z,11.35
2022-11-23T17:42:04.816Z,12.38
2022-11-23T17:44:34.717Z,15.52
2022-11-23T17:47:05.236Z,15.13
2022-11-23T17:49:36.735Z,15.20
2022-11-23T17:52:06.183Z,12.90
2022-11-23T17:54:35.347Z,9.13
2022-11-23T17:57:04.619Z,7.60
2022-11-23T17:59:35.102Z,8.88
2022-11-23T18:02:04.390Z,8.18
2022-11-23T18:04:33.640Z,9.65
2022-11-23T18:07:03.233Z,10.32
2022-11-23T18:09:33.884Z,12.05
2022-11-23T18:12:03.691Z,13.68
2022-11-23T18:14:33.343Z,14.65
2022-11-23T18:17:02.721Z,19.20
2022-11-23T18:19:32.362Z,18.55
2022-11-23T18:22:03.978Z,18.02
2022-11-23T18:24:35.846Z,25.30
2022-11-23T18:27:05.084Z,22.52
2022-11-23T18:29:34.777Z,29.17
2022-11-23T18:32:07.250Z,27.27
2022-11-23T18:34:36.855Z,24.98
2022-11-23T18:37:06.174Z,22.73
2022-11-23T18:39:35.732Z,21.27
2022-11-23T18:42:06.140Z,18.67
2022-11-23T18:44:35.991Z,16.15
2022-11-23T18:47:05.291Z,14.52
2022-11-23T18:49:35.072Z,15.02
2022-11-23T18:52:04.471Z,11.27
2022-11-23T18:54:33.674Z,8.25
2022-11-23T18:57:05.610Z,6.63
2022-11-23T19:02:26.690Z,3.85
2022-11-23T19:04:55.892Z,3.53
2022-11-23T19:07:27.251Z,2.38
2022-11-23T19:09:57.193Z,2.35
2022-11-23T19:12:26.504Z,2.17
2022-11-23T19:14:55.672Z,1.05
2022-11-23T19:17:24.852Z,1.85
2022-11-23T19:19:54.029Z,2.33
2022-11-23T19:22:25.053Z,1.90
2022-11-23T19:24:54.165Z,1.83
2022-11-23T19:27:23.272Z,1.83
2022-11-23T19:29:52.454Z,1.67
2022-11-23T19:32:21.530Z,2.58
2022-11-23T19:34:50.722Z,2.13
2022-11-23T19:37:19.832Z,2.03
2022-11-23T19:39:49.008Z,2.53
2022-11-23T19:42:18.209Z,2.45
2022-11-23T19:44:47.332Z,3.70
2022-11-23T19:47:22.598Z,5.78
2022-11-23T19:49:52.237Z,8.00
2022-11-23T19:52:21.445Z,6.22
2022-11-23T19:54:50.536Z,5.35
2022-11-23T19:57:19.623Z,4.72
2022-11-23T19:59:49.128Z,4.70
2022-11-23T20:02:26.260Z,4.32
2022-11-23T20:04:55.456Z,4.30
2022-11-23T20:07:24.717Z,4.00
2022-11-23T20:09:54.419Z,4.25
2022-11-23T20:12:23.513Z,5.10
2022-11-23T20:14:52.601Z,4.80
2022-11-23T20:17:21.989Z,4.25
2022-11-23T20:19:51.117Z,5.78
2022-11-23T20:22:20.224Z,9.05
2022-11-23T20:24:49.335Z,10.77
2022-11-23T20:27:18.504Z,12.43
2022-11-23T20:29:47.629Z,12.20
2022-11-23T20:32:16.935Z,11.50
2022-11-23T20:34:46.034Z,11.55
2022-11-23T20:37:15.131Z,10.45
2022-11-23T20:39:44.267Z,10.10
2022-11-23T20:42:13.322Z,8.98
2022-11-23T20:44:42.370Z,9.15
2022-11-23T20:47:11.651Z,10.23
2022-11-23T20:49:40.808Z,10.50
2022-11-23T20:52:09.917Z,11.32
2022-11-23T20:54:39.126Z,9.63
2022-11-23T20:57:08.212Z,9.07
2022-11-23T20:59:37.372Z,9.43
2022-11-23T21:02:06.980Z,9.27
2022-11-23T21:04:36.585Z,9.43
2022-11-23T21:07:05.794Z,9.35
2022-11-23T21:09:35.229Z,9.27
2022-11-23T21:12:22.963Z,8.57
2022-11-23T21:14:52.197Z,9.37
2022-11-23T21:17:22.176Z,11.32
2022-11-23T21:19:52.622Z,9.00
2022-11-23T21:22:21.725Z,9.05
2022-11-23T21:24:50.916Z,7.47
2022-11-23T21:27:24.129Z,7.82
2022-11-23T21:29:53.770Z,6.00
2022-11-23T21:32:23.223Z,5.70
2022-11-23T21:34:52.475Z,6.35
2022-11-23T21:37:22.258Z,7.22
2022-11-23T21:39:53.076Z,7.70
2022-11-23T21:42:22.551Z,8.07
2022-11-23T21:44:52.118Z,8.50
2022-11-23T21:47:21.379Z,9.57
2022-11-23T21:49:50.475Z,9.73
2022-11-23T21:52:19.932Z,12.02
2022-11-23T21:54:49.367Z,10.68
2022-11-23T21:57:18.596Z,11.43
2022-11-23T21:59:47.695Z,11.93
2022-11-23T22:02:16.989Z,12.60
2022-11-23T22:04:46.272Z,12.93
2022-11-23T22:07:15.465Z,12.05
2022-11-23T22:09:44.626Z,12.18
2022-11-23T22:12:13.819Z,11.60
2022-11-23T22:14:43.018Z,10.63
2022-11-23T22:17:12.144Z,10.15
2022-11-23T22:19:41.366Z,10.70
2022-11-23T22:22:11.605Z,11.20
2022-11-23T22:24:41.118Z,11.70
2022-11-23T22:27:10.268Z,10.50
2022-11-23T22:29:39.578Z,11.02
2022-11-23T22:32:08.738Z,10.32
2022-11-23T22:34:38.408Z,10.52
2022-11-23T22:37:10.777Z,10.25
2022-11-23T22:39:40.431Z,11.35
2022-11-23T22:42:09.929Z,10.38
2022-11-23T22:44:40.388Z,11.27
2022-11-23T22:47:09.561Z,12.13
2022-11-23T22:49:39.235Z,12.15
2022-11-23T22:52:08.459Z,11.27
2022-11-23T22:54:37.587Z,10.80
2022-11-23T22:57:07.404Z,12.73
2022-11-23T22:59:36.629Z,10.70
2022-11-23T23:02:05.894Z,11.23
2022-11-23T23:04:35.336Z,11.02
2022-11-23T23:07:04.896Z,11.20
2022-11-23T23:09:34.086Z,10.52
2022-11-23T23:12:03.432Z,10.40
2022-11-23T23:14:32.777Z,10.40
2022-11-23T23:17:02.092Z,10.25
2022-11-23T23:19:31.422Z,9.90
2022-11-23T23:22:01.006Z,10.88
2022-11-23T23:24:30.174Z,10.98
2022-11-23T23:27:00.112Z,10.38
2022-11-23T23:29:29.317Z,9.90
2022-11-23T23:31:58.564Z,9.65
2022-11-23T23:34:27.783Z,10.30
2022-11-23T23:36:56.972Z,9.93
2022-11-23T23:39:26.127Z,9.35
2022-11-23T23:41:55.372Z,9.95
2022-11-23T23:44:24.538Z,9.75
2022-11-23T23:46:53.685Z,9.70
2022-11-23T23:49:22.890Z,10.25
2022-11-23T23:51:52.063Z,10.23
2022-11-23T23:54:21.337Z,10.68
2022-11-23T23:56:50.617Z,11.40
2022-11-23T23:59:19.783Z,10.98
